Time;durP1;ratioP1;P1;durP2;ratioP2;P2;SDS_P1;SDS_P2;PMS_P1;PMS_P2;Temp;Humidity;BMP_temperature;BMP_pressure;BME280_temperature;BME280_humidity;BME280_pressure;Samples;Min_cycle;Max_cycle;Signal;HPM_P1;HPM_P2
2023/01/16 00:00:56;;;;;;;4.50;2.30;;;;;;;;;;102238;1340;29070;-37
2023/01/16 00:03:37;;;;;;;4.60;2.30;;;;;;;;;;102292;1340;31757;-37
2023/01/16 00:06:12;;;;;;;5.10;2.50;;;;;;;;;;101332;1340;1365974;-37
2023/01/16 00:08:49;;;;;;;4.30;2.30;;;;;;;;;;102297;1340;29725;-37
2023/01/16 00:11:24;;;;;;;4.90;2.40;;;;;;;;;;102246;1340;30039;-38
2023/01/16 00:13:59;;;;;;;4.80;2.30;;;;;;;;;;102300;1340;30101;-37
2023/01/16 00:16:34;;;;;;;4.60;2.30;;;;;;;;;;102283;1340;30652;-38
2023/01/16 00:19:11;;;;;;;4.50;2.30;;;;;;;;;;102318;1340;29666;-38
2023/01/16 00:21:47;;;;;;;4.80;2.30;;;;;;;;;;102231;1340;28618;-37
2023/01/16 00:24:22;;;;;;;4.10;2.20;;;;;;;;;;102206;1340;176886;-37
2023/01/16 00:26:57;;;;;;;4.60;2.30;;;;;;;;;;102295;1340;31487;-37
2023/01/16 00:29:31;;;;;;;4.40;2.10;;;;;;;;;;102247;1340;29545;-37
2023/01/16 00:32:06;;;;;;;5.00;2.30;;;;;;;;;;102231;1340;28901;-38
2023/01/16 00:34:44;;;;;;;4.20;2.10;;;;;;;;;;102267;1340;30355;-37
2023/01/16 00:37:19;;;;;;;5.00;2.30;;;;;;;;;;102305;1340;31342;-37
2023/01/16 00:39:54;;;;;;;4.20;2.20;;;;;;;;;;102289;1340;29859;-37
2023/01/16 00:42:29;;;;;;;4.20;2.20;;;;;;;;;;102225;1340;28902;-39
2023/01/16 00:45:03;;;;;;;4.70;2.40;;;;;;;;;;102291;1340;30412;-37
2023/01/16 00:47:38;;;;;;;4.50;2.30;;;;;;;;;;102281;1340;32886;-38
2023/01/16 00:50:13;;;;;;;4.60;2.40;;;;;;;;;;102283;1340;29769;-37
2023/01/16 00:52:51;;;;;;;4.00;2.00;;;;;;;;;;102240;1340;28853;-37
2023/01/16 00:55:27;;;;;;;5.00;2.40;;;;;;;;;;102260;1340;30370;-37
2023/01/16 00:58:02;;;;;;;4.50;2.40;;;;;;;;;;102284;1340;31326;-37
2023/01/16 01:00:37;;;;;;;4.40;2.20;;;;;;;;;;102284;1340;29379;-37
2023/01/16 01:03:12;;;;;;;4.30;2.10;;;;;;;;;;102265;1340;28862;-38
2023/01/16 01:05:47;;;;;;;4.60;2.40;;;;;;;;;;102302;1340;30346;-37
2023/01/16 01:08:21;;;;;;;4.90;2.20;;;;;;;;;;102184;1340;176594;-38
2023/01/16 01:10:56;;;;;;;4.50;2.00;;;;;;;;;;102273;1340;29790;-38
2023/01/16 01:13:31;;;;;;;4.10;2.00;;;;;;;;;;102259;1340;28696;-37
2023/01/16 01:16:07;;;;;;;4.50;2.20;;;;;;;;;;102262;1340;30428;-37
2023/01/16 01:18:41;;;;;;;4.10;2.00;;;;;;;;;;102335;1340;30988;-37
2023/01/16 01:21:16;;;;;;;4.00;2.00;;;;;;;;;;102318;1340;29777;-37
2023/01/16 01:23:50;;;;;;;4.50;2.30;;;;;;;;;;102260;1340;28989;-37
2023/01/16 01:26:24;;;;;;;4.30;2.10;;;;;;;;;;102435;1339;30516;-37
2023/01/16 01:28:58;;;;;;;4.50;2.10;;;;;;;;;;102275;1340;31185;-37
2023/01/16 01:31:33;;;;;;;4.70;2.00;;;;;;;;;;102279;1340;29848;-37
2023/01/16 01:34:07;;;;;;;4.40;2.10;;;;;;;;;;102258;1340;28864;-38
2023/01/16 01:36:42;;;;;;;4.40;2.30;;;;;;;;;;102279;1340;30372;-37
2023/01/16 01:39:19;;;;;;;4.20;1.90;;;;;;;;;;102251;1340;31238;-37
2023/01/16 01:42:42;;;;;;;4.60;2.20;;;;;;;;;;102180;1340;176861;-37
2023/01/16 01:44:57;;;;;;;4.60;2.20;;;;;;;;;;102244;1340;28852;-37
2023/01/16 01:47:37;;;;;;;4.30;2.00;;;;;;;;;;102273;1340;30416;-37
2023/01/16 01:50:21;;;;;;;4.40;2.30;;;;;;;;;;102269;1340;31005;-37
2023/01/16 01:52:56;;;;;;;4.50;2.30;;;;;;;;;;102249;1340;29707;-37
2023/01/16 01:55:31;;;;;;;4.50;2.20;;;;;;;;;;102314;1340;28775;-37
2023/01/16 01:58:18;;;;;;;4.80;2.30;;;;;;;;;;102296;1340;30366;-38
2023/01/16 02:00:57;;;;;;;4.20;2.40;;;;;;;;;;102276;1340;31052;-37
2023/01/16 02:03:39;;;;;;;4.20;2.10;;;;;;;;;;102279;1340;29792;-37
2023/01/16 02:06:21;;;;;;;3.90;2.00;;;;;;;;;;102299;1340;29040;-37
2023/01/16 02:08:58;;;;;;;4.40;2.50;;;;;;;;;;102288;1340;30565;-37
2023/01/16 02:11:39;;;;;;;4.10;2.00;;;;;;;;;;102306;1340;31517;-37
2023/01/16 02:14:16;;;;;;;4.50;2.20;;;;;;;;;;102265;1340;29743;-37
2023/01/16 02:20:00;;;;;;;4.70;2.10;;;;;;;;;;102280;1340;30277;-37
2023/01/16 02:23:22;;;;;;;3.60;2.00;;;;;;;;;;102270;1340;31091;-37
2023/01/16 02:26:51;;;;;;;4.30;1.90;;;;;;;;;;102287;1340;37720;-37
2023/01/16 02:30:00;;;;;;;3.60;1.90;;;;;;;;;;102227;1340;28935;-37
2023/01/16 02:32:52;;;;;;;4.30;2.00;;;;;;;;;;102318;1340;30540;-37
2023/01/16 02:35:58;;;;;;;4.20;2.10;;;;;;;;;;102255;1340;31218;-37
2023/01/16 02:38:47;;;;;;;4.20;2.20;;;;;;;;;;102296;1340;29925;-37
2023/01/16 02:41:41;;;;;;;4.10;2.00;;;;;;;;;;102290;1340;29022;-37
2023/01/16 02:44:28;;;;;;;4.30;2.20;;;;;;;;;;102239;1340;30405;-37
2023/01/16 02:47:22;;;;;;;4.70;2.40;;;;;;;;;;102180;1340;176585;-37
2023/01/16 02:50:07;;;;;;;4.30;2.00;;;;;;;;;;102310;1340;29820;-37
2023/01/16 02:52:47;;;;;;;4.10;2.10;;;;;;;;;;102298;1340;28899;-38
2023/01/16 02:55:29;;;;;;;3.90;2.00;;;;;;;;;;102265;1340;30394;-37
2023/01/16 02:58:09;;;;;;;4.30;2.10;;;;;;;;;;102319;1340;31117;-37
2023/01/16 03:00:55;;;;;;;4.20;2.10;;;;;;;;;;102325;1340;29660;-38
2023/01/16 03:03:43;;;;;;;4.20;1.90;;;;;;;;;;102338;1339;176854;-37
2023/01/16 03:06:42;;;;;;;4.10;2.00;;;;;;;;;;102251;1340;30393;-37
2023/01/16 03:09:35;;;;;;;4.10;2.00;;;;;;;;;;102305;1340;31075;-37
2023/01/16 03:12:31;;;;;;;4.10;1.90;;;;;;;;;;102294;1340;29576;-37
2023/01/16 03:15:13;;;;;;;4.50;2.20;;;;;;;;;;102247;1340;28903;-37
2023/01/16 03:18:06;;;;;;;4.60;2.20;;;;;;;;;;102306;1340;30675;-37
2023/01/16 03:20:54;;;;;;;4.10;1.80;;;;;;;;;;102324;1340;31285;-37
2023/01/16 03:23:42;;;;;;;4.40;2.10;;;;;;;;;;102291;1340;29679;-37
2023/01/16 03:26:21;;;;;;;4.40;2.00;;;;;;;;;;102286;1340;28787;-37
2023/01/16 03:29:10;;;;;;;4.10;2.00;;;;;;;;;;102279;1340;30773;-37
2023/01/16 03:31:53;;;;;;;4.00;2.10;;;;;;;;;;102184;1340;176578;-37
2023/01/16 03:34:34;;;;;;;4.40;2.00;;;;;;;;;;102283;1340;31115;-37
2023/01/16 03:37:14;;;;;;;4.20;2.10;;;;;;;;;;102250;1340;28998;-37
2023/01/16 03:39:55;;;;;;;4.10;2.00;;;;;;;;;;102280;1340;30414;-37
2023/01/16 03:42:36;;;;;;;4.20;2.10;;;;;;;;;;102272;1340;31180;-37
2023/01/16 03:45:23;;;;;;;4.20;2.10;;;;;;;;;;102271;1340;29812;-37
2023/01/16 03:48:07;;;;;;;4.50;2.10;;;;;;;;;;102259;1340;38508;-37
2023/01/16 03:50:46;;;;;;;4.10;2.00;;;;;;;;;;102281;1340;30593;-37
2023/01/16 03:53:28;;;;;;;4.20;2.10;;;;;;;;;;102274;1340;31310;-37
2023/01/16 03:56:14;;;;;;;4.20;2.10;;;;;;;;;;102270;1340;30004;-37
2023/01/16 03:58:57;;;;;;;4.20;2.00;;;;;;;;;;102323;1340;28871;-37
2023/01/16 04:01:41;;;;;;;4.00;2.00;;;;;;;;;;102292;1340;30553;-37
2023/01/16 04:04:25;;;;;;;4.10;1.90;;;;;;;;;;102173;1340;176939;-37
2023/01/16 04:07:11;;;;;;;4.30;2.10;;;;;;;;;;102274;1340;30058;-37
2023/01/16 04:09:53;;;;;;;4.30;2.10;;;;;;;;;;102268;1340;28909;-37
2023/01/16 04:12:33;;;;;;;4.10;2.00;;;;;;;;;;102293;1340;30779;-37
2023/01/16 04:15:12;;;;;;;4.40;1.80;;;;;;;;;;102297;1340;31191;-37
2023/01/16 04:17:50;;;;;;;4.00;2.00;;;;;;;;;;102304;1339;30415;-37
2023/01/16 04:20:26;;;;;;;3.80;2.00;;;;;;;;;;102300;1340;28898;-37
2023/01/16 04:23:04;;;;;;;3.90;2.00;;;;;;;;;;102178;1340;176847;-37
2023/01/16 04:25:41;;;;;;;3.90;1.80;;;;;;;;;;102306;1340;30867;-37
2023/01/16 04:28:18;;;;;;;4.20;2.10;;;;;;;;;;102246;1340;29972;-37
2023/01/16 04:30:53;;;;;;;4.30;2.20;;;;;;;;;;102308;1340;28881;-37
2023/01/16 04:33:29;;;;;;;4.00;2.10;;;;;;;;;;102281;1340;30237;-37
2023/01/16 04:36:04;;;;;;;4.10;2.00;;;;;;;;;;102267;1340;31289;-37
2023/01/16 04:38:40;;;;;;;4.90;2.00;;;;;;;;;;102255;1340;29851;-37
2023/01/16 04:41:35;;;;;;;4.70;2.10;;;;;;;;;;102261;1340;28654;-37
2023/01/16 04:44:12;;;;;;;4.40;2.20;;;;;;;;;;102282;1340;30306;-37
2023/01/16 04:46:48;;;;;;;4.30;2.10;;;;;;;;;;102281;1340;31099;-37
2023/01/16 04:49:22;;;;;;;4.10;2.10;;;;;;;;;;102258;1340;29862;-37
2023/01/16 04:51:57;;;;;;;4.30;2.00;;;;;;;;;;102261;1340;29811;-37
2023/01/16 04:54:32;;;;;;;4.20;2.30;;;;;;;;;;102282;1340;30555;-37
2023/01/16 04:57:10;;;;;;;4.10;2.00;;;;;;;;;;102249;1340;31168;-37
2023/01/16 04:59:44;;;;;;;4.00;2.00;;;;;;;;;;102285;1340;29949;-37
2023/01/16 05:02:23;;;;;;;3.90;1.90;;;;;;;;;;102263;1340;28910;-37
2023/01/16 05:05:01;;;;;;;4.10;2.10;;;;;;;;;;102276;1340;30724;-37
2023/01/16 05:07:36;;;;;;;4.20;2.20;;;;;;;;;;102256;1340;31134;-37
2023/01/16 05:10:12;;;;;;;4.00;1.90;;;;;;;;;;102272;1340;30942;-37
2023/01/16 05:12:49;;;;;;;4.10;2.00;;;;;;;;;;102270;1340;28580;-37
2023/01/16 05:15:24;;;;;;;3.90;2.00;;;;;;;;;;102289;1340;30394;-37
2023/01/16 05:18:01;;;;;;;4.30;2.20;;;;;;;;;;102240;1340;31275;-37
2023/01/16 05:20:38;;;;;;;4.50;2.20;;;;;;;;;;102269;1340;29669;-37
2023/01/16 05:23:14;;;;;;;4.20;2.20;;;;;;;;;;102262;1340;28920;-37
2023/01/16 05:25:53;;;;;;;4.30;2.00;;;;;;;;;;102273;1340;30874;-37
2023/01/16 05:28:28;;;;;;;4.20;1.90;;;;;;;;;;102252;1340;30784;-37
2023/01/16 05:31:06;;;;;;;4.00;1.90;;;;;;;;;;102276;1340;29733;-37
2023/01/16 05:33:44;;;;;;;4.10;2.00;;;;;;;;;;102314;1340;29066;-37
2023/01/16 05:36:22;;;;;;;4.40;2.10;;;;;;;;;;102274;1340;30365;-37
2023/01/16 05:38:57;;;;;;;4.40;2.00;;;;;;;;;;102255;1340;32462;-37
2023/01/16 05:41:32;;;;;;;5.20;2.30;;;;;;;;;;102278;1340;29587;-37
2023/01/16 05:44:10;;;;;;;4.70;2.30;;;;;;;;;;102270;1340;28930;-37
2023/01/16 05:46:45;;;;;;;4.60;2.10;;;;;;;;;;102255;1340;30409;-37
2023/01/16 05:49:21;;;;;;;4.60;2.10;;;;;;;;;;102256;1340;32282;-36
2023/01/16 05:51:55;;;;;;;4.60;2.10;;;;;;;;;;102294;1340;29760;-36
2023/01/16 05:54:31;;;;;;;4.80;2.10;;;;;;;;;;102335;1340;28834;-37
2023/01/16 05:57:06;;;;;;;4.80;2.40;;;;;;;;;;102335;1340;30355;-39
2023/01/16 05:59:45;;;;;;;5.20;2.30;;;;;;;;;;102307;1340;31092;-36
2023/01/16 06:02:22;;;;;;;5.20;2.30;;;;;;;;;;102341;1340;29416;-36
2023/01/16 06:04:57;;;;;;;4.90;2.20;;;;;;;;;;102337;1340;29072;-36
2023/01/16 06:07:32;;;;;;;5.00;2.30;;;;;;;;;;102342;1340;30742;-36
2023/01/16 06:10:08;;;;;;;4.30;2.00;;;;;;;;;;102303;1340;31126;-36
2023/01/16 06:12:43;;;;;;;4.50;2.20;;;;;;;;;;102367;1340;29397;-36
2023/01/16 06:15:17;;;;;;;5.70;2.20;;;;;;;;;;102351;1340;28821;-36
2023/01/16 06:17:54;;;;;;;4.80;2.10;;;;;;;;;;102248;1340;183743;-36
2023/01/16 06:20:32;;;;;;;4.40;2.00;;;;;;;;;;102319;1340;31122;-36
2023/01/16 06:23:06;;;;;;;5.20;2.30;;;;;;;;;;102343;1340;31103;-36
2023/01/16 06:25:42;;;;;;;5.00;2.20;;;;;;;;;;102348;1340;28548;-36
2023/01/16 06:28:16;;;;;;;6.10;2.40;;;;;;;;;;102321;1340;30412;-36
2023/01/16 06:30:54;;;;;;;5.20;2.30;;;;;;;;;;102243;1340;176777;-36
2023/01/16 06:33:28;;;;;;;4.90;2.40;;;;;;;;;;102382;1340;29704;-36
2023/01/16 06:36:02;;;;;;;4.70;2.30;;;;;;;;;;102342;1340;28960;-36
2023/01/16 06:38:36;;;;;;;5.70;2.20;;;;;;;;;;102326;1340;30457;-36
2023/01/16 06:41:10;;;;;;;6.00;2.10;;;;;;;;;;102316;1340;31330;-36
2023/01/16 06:43:44;;;;;;;5.50;2.20;;;;;;;;;;102327;1340;29433;-36
2023/01/16 06:46:19;;;;;;;5.00;2.50;;;;;;;;;;102355;1340;29027;-36
2023/01/16 06:48:53;;;;;;;5.40;2.20;;;;;;;;;;102319;1340;30376;-36
2023/01/16 06:51:28;;;;;;;5.90;2.20;;;;;;;;;;102331;1340;38947;-36
2023/01/16 06:54:03;;;;;;;4.70;2.20;;;;;;;;;;102342;1340;29842;-37
2023/01/16 06:56:37;;;;;;;5.10;2.40;;;;;;;;;;102226;1340;176546;-37
2023/01/16 06:59:15;;;;;;;4.90;2.10;;;;;;;;;;102341;1340;30508;-39
2023/01/16 07:01:50;;;;;;;5.10;2.50;;;;;;;;;;102323;1340;31148;-39
2023/01/16 07:04:24;;;;;;;5.50;2.30;;;;;;;;;;102329;1340;29883;-39
2023/01/16 07:07:00;;;;;;;5.10;2.30;;;;;;;;;;102359;1340;28887;-38
2023/01/16 07:09:36;;;;;;;6.60;2.60;;;;;;;;;;102324;1340;30423;-39
2023/01/16 07:12:15;;;;;;;6.30;2.30;;;;;;;;;;102316;1340;40929;-38
2023/01/16 07:23:31;;;;;;;5.40;2.10;;;;;;;;;;102328;1340;31313;-38
2023/01/16 07:26:10;;;;;;;4.90;2.10;;;;;;;;;;102322;1340;29856;-39
2023/01/16 07:28:45;;;;;;;5.90;2.40;;;;;;;;;;102246;1340;176815;-38
2023/01/16 07:31:22;;;;;;;5.70;2.20;;;;;;;;;;102407;1340;30373;-37
2023/01/16 07:33:58;;;;;;;5.50;2.30;;;;;;;;;;102327;1340;31381;-37
2023/01/16 07:36:33;;;;;;;4.80;2.20;;;;;;;;;;102426;1339;29653;-38
2023/01/16 07:39:08;;;;;;;4.90;2.30;;;;;;;;;;102437;1339;28907;-38
2023/01/16 07:41:45;;;;;;;5.40;2.40;;;;;;;;;;102422;1339;30057;-38
2023/01/16 07:44:33;;;;;;;6.00;2.30;;;;;;;;;;102397;1339;30971;-38
2023/01/16 07:47:08;;;;;;;5.60;2.50;;;;;;;;;;102487;1338;29750;-39
2023/01/16 07:49:43;;;;;;;5.50;2.30;;;;;;;;;;102503;1339;28844;-39
2023/01/16 07:52:20;;;;;;;4.60;2.20;;;;;;;;;;102503;1339;30553;-41
2023/01/16 07:54:54;;;;;;;5.30;2.20;;;;;;;;;;102521;1339;31334;-39
2023/01/16 07:57:32;;;;;;;5.10;2.20;;;;;;;;;;102468;1339;29758;-39
2023/01/16 08:00:10;;;;;;;5.80;2.20;;;;;;;;;;102500;1339;29133;-40
2023/01/16 08:02:44;;;;;;;5.30;2.30;;;;;;;;;;102403;1339;29873;-38
2023/01/16 08:05:20;;;;;;;5.00;2.30;;;;;;;;;;102334;1340;168981;-39
2023/01/16 08:07:54;;;;;;;5.30;2.10;;;;;;;;;;102363;1340;29659;-39
2023/01/16 08:10:30;;;;;;;5.20;2.30;;;;;;;;;;102334;1340;28909;-39
2023/01/16 08:13:05;;;;;;;5.20;2.10;;;;;;;;;;102241;1340;30564;-38
2023/01/16 08:15:40;;;;;;;4.70;2.10;;;;;;;;;;101698;1340;893549;-38
2023/01/16 08:18:19;;;;;;;5.00;2.10;;;;;;;;;;102354;1340;29913;-38
2023/01/16 08:20:54;;;;;;;6.00;2.30;;;;;;;;;;102311;1340;29012;-38
2023/01/16 08:23:28;;;;;;;4.50;2.00;;;;;;;;;;102265;1340;41815;-39
2023/01/16 08:26:06;;;;;;;4.90;2.30;;;;;;;;;;102332;1340;31106;-38
2023/01/16 08:28:42;;;;;;;5.00;2.30;;;;;;;;;;102221;1340;177001;-38
2023/01/16 08:31:17;;;;;;;4.70;2.10;;;;;;;;;;102342;1340;28893;-39
2023/01/16 08:33:54;;;;;;;5.70;2.60;;;;;;;;;;102332;1340;39627;-38
2023/01/16 08:36:32;;;;;;;4.50;2.30;;;;;;;;;;102457;1339;31300;-38
2023/01/16 08:39:11;;;;;;;5.10;2.30;;;;;;;;;;102534;1340;29808;-40
2023/01/16 08:53:15;;;;;;;4.80;2.40;;;;;;;;;;102490;1339;28439;-40
2023/01/16 08:55:50;;;;;;;5.00;2.30;;;;;;;;;;102508;1339;30313;-41
2023/01/16 08:58:28;;;;;;;5.20;2.40;;;;;;;;;;102500;1339;31105;-41
2023/01/16 09:01:06;;;;;;;4.80;2.40;;;;;;;;;;102516;1339;29853;-41
2023/01/16 09:03:40;;;;;;;5.00;2.40;;;;;;;;;;102442;1339;28980;-40
2023/01/16 09:06:15;;;;;;;4.80;2.30;;;;;;;;;;102485;1339;30310;-42
2023/01/16 09:08:54;;;;;;;4.90;2.30;;;;;;;;;;102519;1340;30696;-39
2023/01/16 09:14:27;;;;;;;5.50;2.50;;;;;;;;;;102479;1339;29263;-39
2023/01/16 09:17:11;;;;;;;4.50;2.40;;;;;;;;;;102546;1339;30516;-39
2023/01/16 09:19:46;;;;;;;4.70;2.30;;;;;;;;;;102507;1340;31312;-38
2023/01/16 09:22:24;;;;;;;4.40;2.30;;;;;;;;;;102520;1339;29475;-38
2023/01/16 09:25:00;;;;;;;5.10;2.40;;;;;;;;;;102509;1339;39920;-39
2023/01/16 09:27:34;;;;;;;5.60;2.60;;;;;;;;;;102495;1340;30539;-38
2023/01/16 09:30:13;;;;;;;4.70;2.50;;;;;;;;;;102527;1339;31297;-38
2023/01/16 09:32:51;;;;;;;4.40;2.40;;;;;;;;;;102462;1339;29706;-38
2023/01/16 09:35:30;;;;;;;4.90;2.50;;;;;;;;;;102459;1340;28802;-39
2023/01/16 09:38:09;;;;;;;5.00;2.30;;;;;;;;;;102345;1340;30392;-39
2023/01/16 09:40:52;;;;;;;4.30;2.20;;;;;;;;;;102341;1340;31993;-38
2023/01/16 09:43:41;;;;;;;4.90;2.30;;;;;;;;;;102334;1340;29754;-38
2023/01/16 09:46:23;;;;;;;4.50;2.10;;;;;;;;;;102315;1340;29045;-38
2023/01/16 09:49:03;;;;;;;4.90;2.30;;;;;;;;;;102346;1340;30810;-38
2023/01/16 09:58:34;;;;;;;4.90;2.40;;;;;;;;;;102308;1340;31214;-38
2023/01/16 10:00:37;;;;;;;4.80;2.30;;;;;;;;;;102477;1340;30411;-39
2023/01/16 10:03:16;;;;;;;4.80;2.40;;;;;;;;;;102499;1339;31255;-39
2023/01/16 10:05:59;;;;;;;4.90;2.60;;;;;;;;;;102494;1339;39524;-39
2023/01/16 10:08:43;;;;;;;5.50;2.40;;;;;;;;;;102431;1340;28803;-39
2023/01/16 10:11:27;;;;;;;4.60;2.30;;;;;;;;;;102415;1339;30201;-39
2023/01/16 10:14:20;;;;;;;4.90;2.20;;;;;;;;;;102342;1340;33525;-39
2023/01/16 10:17:10;;;;;;;4.30;2.20;;;;;;;;;;102360;1340;29479;-38
2023/01/16 10:20:18;;;;;;;4.50;2.30;;;;;;;;;;102479;1339;29255;-38
2023/01/16 10:23:11;;;;;;;4.60;2.40;;;;;;;;;;102522;1338;30347;-40
2023/01/16 10:25:57;;;;;;;4.50;2.40;;;;;;;;;;102395;1340;31230;-40
2023/01/16 10:28:55;;;;;;;4.50;2.20;;;;;;;;;;102368;1340;29782;-40
2023/01/16 10:31:39;;;;;;;4.50;2.40;;;;;;;;;;102354;1340;29015;-44
2023/01/16 10:34:20;;;;;;;4.30;2.20;;;;;;;;;;102265;1340;30311;-39
2023/01/16 10:36:58;;;;;;;4.40;2.20;;;;;;;;;;102321;1340;32411;-40
2023/01/16 10:39:38;;;;;;;4.60;2.40;;;;;;;;;;102329;1340;29893;-40
2023/01/16 10:51:13;;;;;;;4.90;2.10;;;;;;;;;;102359;1339;176678;-39
2023/01/16 10:53:51;;;;;;;8.30;2.60;;;;;;;;;;102410;1339;30103;-39
2023/01/16 10:56:28;;;;;;;4.90;2.20;;;;;;;;;;102470;1339;30269;-38
2023/01/16 10:59:03;;;;;;;4.40;2.30;;;;;;;;;;102513;1339;30880;-40
2023/01/16 11:01:44;;;;;;;5.40;2.30;;;;;;;;;;102508;1339;29890;-42
2023/01/16 11:04:22;;;;;;;5.30;2.20;;;;;;;;;;102493;1338;28821;-39
2023/01/16 11:07:20;;;;;;;4.70;2.50;;;;;;;;;;102318;1340;39270;-38
2023/01/16 11:10:01;;;;;;;5.10;2.40;;;;;;;;;;102498;1340;31260;-40
2023/01/16 11:18:39;;;;;;;4.60;2.40;;;;;;;;;;102497;1338;30386;-36
2023/01/16 11:21:26;;;;;;;4.50;2.40;;;;;;;;;;102529;1339;31516;-35
2023/01/16 11:24:13;;;;;;;5.90;2.50;;;;;;;;;;102482;1339;29401;-36
2023/01/16 11:26:59;;;;;;;4.20;2.30;;;;;;;;;;102711;1338;28739;-36
2023/01/16 11:29:42;;;;;;;5.50;2.70;;;;;;;;;;102535;1339;30112;-36
2023/01/16 11:32:24;;;;;;;4.70;2.50;;;;;;;;;;102505;1339;30936;-36
2023/01/16 11:35:01;;;;;;;4.80;2.40;;;;;;;;;;102480;1339;29812;-36
2023/01/16 11:37:37;;;;;;;4.50;2.40;;;;;;;;;;102488;1339;37603;-37
2023/01/16 11:40:28;;;;;;;4.70;2.50;;;;;;;;;;102468;1339;30499;-37
2023/01/16 11:46:34;;;;;;;4.80;2.50;;;;;;;;;;102511;1339;29862;-36
2023/01/16 11:49:20;;;;;;;4.60;2.30;;;;;;;;;;102502;1339;28660;-36
2023/01/16 11:52:02;;;;;;;4.60;2.40;;;;;;;;;;102538;1339;31196;-37
2023/01/16 11:54:39;;;;;;;5.30;2.50;;;;;;;;;;102300;1344;31198;-36
2023/01/16 11:57:41;;;;;;;4.90;2.30;;;;;;;;;;102240;1342;29714;-37
2023/01/16 12:00:49;;;;;;;4.90;2.40;;;;;;;;;;102304;1343;28883;-36
2023/01/16 12:04:00;;;;;;;4.40;2.10;;;;;;;;;;102262;1343;30518;-36
2023/01/16 12:06:57;;;;;;;4.50;2.40;;;;;;;;;;102135;1342;176808;-36
2023/01/16 12:09:54;;;;;;;5.00;2.50;;;;;;;;;;102295;1342;29572;-37
2023/01/16 12:15:37;;;;;;;4.90;2.30;;;;;;;;;;102276;1342;30379;-36
2023/01/16 12:18:30;;;;;;;4.40;2.60;;;;;;;;;;102146;1342;32237;-39
2023/01/16 12:21:08;;;;;;;4.60;2.40;;;;;;;;;;102275;1342;29635;-38
2023/01/16 12:23:58;;;;;;;4.70;2.40;;;;;;;;;;102268;1342;28989;-39
2023/01/16 12:26:40;;;;;;;5.30;2.60;;;;;;;;;;102194;1342;30557;-39
2023/01/16 12:29:33;;;;;;;;;;;;;;;;;;102329;1343;31134;-39
2023/01/16 12:32:23;;;;;;;4.80;2.70;;;;;;;;;;102258;1343;29211;-39
2023/01/16 12:35:47;;;;;;;4.80;2.60;;;;;;;;;;102279;1342;29037;-39
2023/01/16 12:38:29;;;;;;;4.70;2.40;;;;;;;;;;102228;1343;31705;-37
2023/01/16 12:44:41;;;;;;;4.40;2.30;;;;;;;;;;102234;1342;29605;-36
2023/01/16 12:47:34;;;;;;;5.40;2.80;;;;;;;;;;102221;1343;29037;-36
2023/01/16 12:50:28;;;;;;;4.50;2.50;;;;;;;;;;102267;1343;30593;-36
2023/01/16 12:53:54;;;;;;;4.60;2.60;;;;;;;;;;102261;1339;176531;-36
2023/01/16 12:56:49;;;;;;;5.10;2.50;;;;;;;;;;102524;1338;29883;-36
2023/01/16 12:59:30;;;;;;;4.50;2.40;;;;;;;;;;102487;1340;38019;-36
2023/01/16 13:02:19;;;;;;;4.60;2.60;;;;;;;;;;102540;1339;30516;-36
2023/01/16 13:05:00;;;;;;;4.90;2.70;;;;;;;;;;102526;1339;31440;-36
2023/01/16 13:07:39;;;;;;;4.80;2.60;;;;;;;;;;102506;1340;29947;-36
2023/01/16 13:13:32;;;;;;;5.00;2.80;;;;;;;;;;102524;1339;30401;-36
2023/01/16 13:16:15;;;;;;;5.00;2.60;;;;;;;;;;102578;1339;30863;-36
2023/01/16 13:18:56;;;;;;;5.00;2.80;;;;;;;;;;102485;1339;29755;-38
2023/01/16 13:21:35;;;;;;;5.10;2.70;;;;;;;;;;102570;1318;28938;-37
2023/01/16 13:24:17;;;;;;;5.20;2.70;;;;;;;;;;102326;1340;30307;-35
2023/01/16 13:27:01;;;;;;;5.40;3.10;;;;;;;;;;102364;1340;31335;-35
2023/01/16 13:29:46;;;;;;;5.60;2.90;;;;;;;;;;102543;1337;29910;-34
2023/01/16 13:32:30;;;;;;;5.80;3.00;;;;;;;;;;102571;1337;28882;-34
2023/01/16 13:35:12;;;;;;;5.80;3.10;;;;;;;;;;102464;1337;176713;-33
2023/01/16 13:38:18;;;;;;;5.60;3.10;;;;;;;;;;102381;1339;31145;-34
2023/01/16 13:41:24;;;;;;;5.20;2.90;;;;;;;;;;102502;1337;38998;-33
2023/01/16 13:47:06;;;;;;;5.70;2.90;;;;;;;;;;102574;1337;30398;-35
2023/01/16 13:49:45;;;;;;;5.90;3.30;;;;;;;;;;102571;1337;31111;-35
2023/01/16 13:52:25;;;;;;;5.80;3.10;;;;;;;;;;102590;1337;29928;-34
2023/01/16 13:55:06;;;;;;;5.70;3.20;;;;;;;;;;102574;1337;28957;-33
2023/01/16 13:57:41;;;;;;;4.90;3.00;;;;;;;;;;102458;1337;30058;-36
2023/01/16 14:00:23;;;;;;;5.10;3.20;;;;;;;;;;102411;1337;31231;-36
2023/01/16 14:03:22;;;;;;;5.50;3.10;;;;;;;;;;102512;1337;29550;-36
2023/01/16 14:09:07;;;;;;;5.00;3.30;;;;;;;;;;99699;1375;550729;-36
2023/01/16 14:12:02;;;;;;;5.40;3.00;;;;;;;;;;102534;1340;29955;-35
2023/01/16 14:18:18;;;;;;;5.60;3.40;;;;;;;;;;102658;1337;27963;-37
2023/01/16 14:21:10;;;;;;;5.80;3.30;;;;;;;;;;102402;1340;29676;-34
2023/01/16 14:24:03;;;;;;;5.60;3.60;;;;;;;;;;102404;1337;30266;-37
2023/01/16 14:26:49;;;;;;;5.60;3.60;;;;;;;;;;102638;1337;28977;-36
2023/01/16 14:29:29;;;;;;;5.80;3.50;;;;;;;;;;102742;1334;28223;-36
2023/01/16 14:32:07;;;;;;;5.10;3.40;;;;;;;;;;102883;1334;29807;-37
2023/01/16 14:34:54;;;;;;;5.90;3.70;;;;;;;;;;102973;1334;30461;-36
2023/01/16 14:37:30;;;;;;;5.90;3.40;;;;;;;;;;103362;1331;28904;-36
2023/01/16 14:40:19;;;;;;;6.20;3.70;;;;;;;;;;103138;1334;33791;-37
2023/01/16 14:56:08;;;;;;;5.90;3.50;;;;;;;;;;102893;1331;29760;-35
2023/01/16 14:58:49;;;;;;;5.80;3.50;;;;;;;;;;103271;1331;30234;-36
2023/01/16 15:04:23;;;;;;;5.90;3.40;;;;;;;;;;103031;1333;27888;-35
2023/01/16 15:07:02;;;;;;;5.40;3.50;;;;;;;;;;103021;1333;29745;-35
2023/01/16 15:09:40;;;;;;;5.10;3.50;;;;;;;;;;103055;1331;30371;-35
2023/01/16 15:12:19;;;;;;;5.60;3.10;;;;;;;;;;102640;1331;894206;-35
2023/01/16 15:14:58;;;;;;;6.40;3.50;;;;;;;;;;103237;1331;28045;-35
2023/01/16 15:23:31;;;;;;;5.60;3.50;;;;;;;;;;102795;1334;28934;-35
2023/01/16 15:26:30;;;;;;;5.00;3.30;;;;;;;;;;102814;1334;28096;-35
2023/01/16 15:29:22;;;;;;;5.50;3.40;;;;;;;;;;102828;1331;30898;-35
2023/01/16 15:32:04;;;;;;;5.50;3.60;;;;;;;;;;103238;1331;29796;-35
2023/01/16 15:34:38;;;;;;;5.30;3.40;;;;;;;;;;103280;1331;30057;-35
2023/01/16 15:37:24;;;;;;;5.30;3.50;;;;;;;;;;103223;1331;27884;-35
2023/01/16 15:39:58;;;;;;;6.00;3.60;;;;;;;;;;102993;1334;29875;-35
2023/01/16 15:48:51;;;;;;;5.40;3.70;;;;;;;;;;102497;1334;28110;-35
2023/01/16 15:51:43;;;;;;;5.90;3.80;;;;;;;;;;102818;1334;35537;-35
2023/01/16 15:54:18;;;;;;;6.10;4.10;;;;;;;;;;102822;1334;30281;-35
2023/01/16 15:56:53;;;;;;;5.60;3.70;;;;;;;;;;102832;1334;31278;-35
2023/01/16 15:59:33;;;;;;;6.20;3.90;;;;;;;;;;102783;1334;27901;-35
2023/01/16 16:02:22;;;;;;;6.10;4.10;;;;;;;;;;102880;1334;37809;-35
2023/01/16 16:05:01;;;;;;;6.40;4.20;;;;;;;;;;102822;1337;30251;-35
2023/01/16 16:07:38;;;;;;;5.70;3.90;;;;;;;;;;103019;1344;28917;-35
2023/01/16 16:13:11;;;;;;;5.90;4.10;;;;;;;;;;103327;1330;29734;-35
2023/01/16 16:19:02;;;;;;;6.70;4.40;;;;;;;;;;103198;1331;28723;-35
2023/01/16 16:22:47;;;;;;;5.80;4.60;;;;;;;;;;102902;1332;29708;-35
2023/01/16 16:24:41;;;;;;;5.90;4.20;;;;;;;;;;102772;1336;30003;-34
2023/01/16 16:27:19;;;;;;;6.40;4.50;;;;;;;;;;102794;1337;30277;-35
2023/01/16 16:29:55;;;;;;;6.20;4.60;;;;;;;;;;102805;1337;28749;-36
2023/01/16 16:32:30;;;;;;;6.10;4.50;;;;;;;;;;103176;1331;28167;-35
2023/01/16 16:35:06;;;;;;;6.80;4.50;;;;;;;;;;103198;1331;29659;-35
2023/01/16 16:37:46;;;;;;;6.30;4.30;;;;;;;;;;103245;1331;30210;-36
2023/01/16 16:40:26;;;;;;;6.00;4.60;;;;;;;;;;103186;1331;29139;-36
2023/01/16 16:43:03;;;;;;;5.90;4.60;;;;;;;;;;102789;1336;35932;-38
2023/01/16 16:45:37;;;;;;;5.60;4.20;;;;;;;;;;102806;1337;29739;-38
2023/01/16 16:48:29;;;;;;;5.60;4.10;;;;;;;;;;102776;1336;30194;-37
2023/01/16 16:51:27;;;;;;;6.10;4.40;;;;;;;;;;102828;1334;28659;-38
2023/01/16 16:54:07;;;;;;;6.50;4.30;;;;;;;;;;103201;1331;29152;-37
2023/01/16 16:56:49;;;;;;;5.90;4.30;;;;;;;;;;103099;1331;175390;-38
2023/01/16 16:59:26;;;;;;;5.80;4.20;;;;;;;;;;103216;1331;30090;-38
2023/01/16 17:02:04;;;;;;;5.90;4.40;;;;;;;;;;103005;1337;28817;-38
2023/01/16 17:05:01;;;;;;;6.30;4.50;;;;;;;;;;102191;1336;893782;-38
2023/01/16 17:07:43;;;;;;;6.70;4.50;;;;;;;;;;103012;1333;29509;-39
2023/01/16 17:10:22;;;;;;;5.80;4.30;;;;;;;;;;103011;1334;30091;-39
2023/01/16 17:12:58;;;;;;;6.10;4.30;;;;;;;;;;103251;1330;28841;-39
2023/01/16 17:15:33;;;;;;;6.20;4.20;;;;;;;;;;103371;1330;28125;-39
2023/01/16 17:18:08;;;;;;;6.00;4.50;;;;;;;;;;103354;1331;29790;-39
2023/01/16 17:20:43;;;;;;;6.50;4.60;;;;;;;;;;103333;1330;30066;-38
2023/01/16 17:23:22;;;;;;;6.60;4.40;;;;;;;;;;103060;1334;28989;-38
2023/01/16 17:25:56;;;;;;;6.80;4.70;;;;;;;;;;103053;1333;28056;-38
2023/01/16 17:28:31;;;;;;;5.60;4.20;;;;;;;;;;103045;1334;29756;-37
2023/01/16 17:31:05;;;;;;;5.90;4.70;;;;;;;;;;103059;1333;30173;-38
2023/01/16 17:33:42;;;;;;;6.10;4.50;;;;;;;;;;103282;1329;29067;-38